Meteo Giornale » Osservazioni meteo Italia » Firenze-Peretola

ore: 18:20 - Osservazioni Meteo Firenze-Peretola
Lat. 43° 48' N Lon. 11° 12' E Alt. 40 metri s.l.m.

poco_nuvoloso Europe/Rome

20 °C

Poco Nuvoloso

Temp. 24 Ore

4 °C

21 °C

Nord

7.4 Km/h

Dew point 3 °C

Umidità 32 %

Visibilità  10 Km

Il sole sorge alle ore 06:06

Il sole tramonta alle ore 20:18

Data e Ora Cielo e Fenomeni T °C DP °C Um. % Pres. hPa Vis. km Vento km/h
Oggi h: 18:20 poco_nuvoloso Poco Nuvoloso 20 3 32 1012 10 N 7.4
Oggi h: 17:50 poco_nuvoloso Poco Nuvoloso 21 0 24 1012 10 N 3.7
Oggi h: 17:20 poco_nuvoloso Poco Nuvoloso 21 2 28 1012 10 N 5.5
Oggi h: 16:50 poco_nuvoloso Poco Nuvoloso 21 1 26 1012 10 N 5.5
Oggi h: 16:20 poco_nuvoloso Poco Nuvoloso 20 3 32 1012 10 N 1.8
Oggi h: 15:50 poco_nuvoloso Poco Nuvoloso 19 2 32 1012 10 N 9.3
Oggi h: 15:20 poco_nuvoloso Poco Nuvoloso 21 3 30 1013 10 N/NE 9.3
Oggi h: 14:50 poco_nuvoloso Poco Nuvoloso 20 2 30 1013 10 N 9.3
Oggi h: 14:20 sereno Sereno 20 1 28 1013 10 N 7.4
Oggi h: 13:50 sereno Sereno 20 2 30 1013 10 N 7.4
Oggi h: 13:20 sereno Sereno 19 1 29 1014 10 NO 11.1
Oggi h: 12:50 sereno Sereno 19 -0 27 1014 10 N 13
Oggi h: 12:20 sereno Sereno 18 1 31 1014 10 N/NE 11.1
Oggi h: 11:50 sereno Sereno 18 1 31 1014 10 NE 14.8
Oggi h: 11:20 sereno Sereno 18 1 31 1014 10 NE 14.8
Oggi h: 10:50 sereno Sereno 18 1 31 1015 10 NE 13
Oggi h: 10:20 sereno Sereno 17 1 33 1015 10 N 5.5
Oggi h: 09:50 sereno Sereno 15 3 44 1015 10 S/SO 7.4
Oggi h: 09:20 sereno Sereno 14 3 47 1015 10 N 3.7
Oggi h: 08:50 sereno Sereno 12 3 54 1015 10 N 5.5
Oggi h: 08:20 sereno Sereno 10 4 66 1015 10 N 3.7
Oggi h: 07:50 sereno Sereno 8 4 75 1016 10 N 5.5
Oggi h: 07:20 sereno Sereno 7 4 81 1015 10 N 5.5
Oggi h: 06:50 sereno Sereno 5 3 86 1015 10 E/NE 7.4
Oggi h: 06:20 sereno Sereno 4 1 80 1015 10 E 7.4
Oggi h: 05:50 sereno Sereno 5 2 80 1015 10 N 3.7
Oggi h: 05:20 sereno Sereno 5 2 80 1015 10 N 3.7
Oggi h: 04:50 sereno Sereno 5 2 80 1015 10 N 3.7
Oggi h: 04:20 sereno Sereno 7 3 75 1016 10 N 3.7
Oggi h: 03:50 sereno Sereno 7 3 75 1015 10 N 5.5
Oggi h: 03:20 sereno Sereno 8 4 75 1015 10 S/SO 9.3
Oggi h: 02:50 sereno Sereno 7 2 70 1015 10 N 3.7
Oggi h: 02:20 sereno Sereno 8 3 70 1016 10 N 3.7
Oggi h: 01:50 sereno Sereno 9 4 70 1016 10 S 9.3
Oggi h: 01:20 sereno Sereno 12 1 46 1016 10 N 11.1
Oggi h: 00:50 sereno Sereno 11 2 53 1016 10 N 3.7
Oggi h: 00:20 sereno Sereno 11 3 57 1016 10 N 5.5
Ieri h: 23:50 sereno Sereno 11 3 57 1016 10 N 5.5
Ieri h: 23:20 sereno Sereno 12 3 54 1016 10 O/NO 11.1
Ieri h: 22:50 sereno Sereno 12 4 57 1016 10 NO 11.1
Ieri h: 22:20 sereno Sereno 12 5 62 1015 10 N 3.7
Ieri h: 21:50 sereno Sereno 12 5 62 1015 10 NO 13
Ieri h: 21:20 sereno Sereno 13 4 54 1015 10 N 5.5
Ieri h: 20:50 sereno Sereno 14 4 50 1015 10 N/NE 14.8
Ieri h: 20:20 sereno Sereno 14 4 50 1014 10 N 7.4
Ieri h: 19:50 sereno Sereno 15 4 47 1014 10 N 5.5
Ieri h: 19:20 sereno Sereno 16 4 44 1014 10 NE 11.1
Ieri h: 18:50 sereno Sereno 17 4 41 1014 10 E/NE 20.3